Time;durP1;ratioP1;P1;durP2;ratioP2;P2;SDS_P1;SDS_P2;PMS_P1;PMS_P2;Temp;Humidity;BMP_temperature;BMP_pressure;BME280_temperature;BME280_humidity;BME280_pressure;Samples;Min_cycle;Max_cycle;Signal;HPM_P1;HPM_P2
2021/08/05 00:00:26;;;;;;;19.07;9.30;;;;;;;15.69;76.47;100422.41;5029575;28;20208;-75
2021/08/05 00:02:53;;;;;;;13.57;7.93;;;;;;;15.60;76.31;100426.75;5026220;28;20209;-75
2021/08/05 00:05:19;;;;;;;10.47;8.13;;;;;;;15.54;76.42;100435.31;5029937;28;20222;-74
2021/08/05 00:07:46;;;;;;;13.60;7.37;;;;;;;15.50;76.36;100423.16;5026199;28;20198;-75
2021/08/05 00:10:12;;;;;;;9.70;8.10;;;;;;;15.46;76.77;100427.06;5030254;28;20209;-74
2021/08/05 00:12:39;;;;;;;10.63;8.60;;;;;;;15.45;76.87;100425.38;5030232;28;20206;-75
2021/08/05 00:15:07;;;;;;;11.90;8.20;;;;;;;15.46;77.15;100424.41;5033054;28;20222;-74
2021/08/05 00:17:34;;;;;;;10.10;8.87;;;;;;;15.47;77.14;100416.22;5032776;28;20230;-75
2021/08/05 00:20:01;;;;;;;10.50;9.30;;;;;;;15.48;77.49;100409.00;5032627;28;20206;-74
2021/08/05 00:22:27;;;;;;;10.67;9.30;;;;;;;15.46;77.29;100414.50;5031976;28;20584;-75
2021/08/05 00:24:54;;;;;;;10.20;7.80;;;;;;;15.42;77.35;100415.75;5031783;28;20263;-75
2021/08/05 00:27:20;;;;;;;11.13;7.70;;;;;;;15.36;76.99;100416.31;5032673;28;20225;-75
2021/08/05 00:29:47;;;;;;;21.97;9.93;;;;;;;15.27;76.93;100423.31;5031554;28;20198;-75
2021/08/05 00:32:15;;;;;;;13.30;8.70;;;;;;;15.18;76.92;100410.72;5032796;28;20206;-74
2021/08/05 00:34:41;;;;;;;12.37;8.47;;;;;;;15.13;77.57;100415.59;5031035;28;20237;-74
2021/08/05 00:37:08;;;;;;;14.17;8.30;;;;;;;15.12;77.82;100416.59;5029003;28;20233;-74
2021/08/05 00:39:35;;;;;;;10.93;9.33;;;;;;;15.14;78.10;100425.34;5032643;28;20206;-74
2021/08/05 00:42:01;;;;;;;12.23;8.97;;;;;;;15.15;78.35;100419.00;5031216;28;20209;-74
2021/08/05 00:44:28;;;;;;;9.97;9.07;;;;;;;15.15;78.32;100419.00;5033480;28;20750;-74
2021/08/05 00:46:54;;;;;;;11.50;10.00;;;;;;;15.17;78.25;100422.41;5029964;28;20216;-75
2021/08/05 00:49:22;;;;;;;11.93;8.83;;;;;;;15.16;78.45;100415.34;5032445;28;20202;-75
2021/08/05 00:51:49;;;;;;;10.33;8.40;;;;;;;15.14;78.32;100411.09;5033091;28;20213;-74
2021/08/05 00:54:17;;;;;;;11.20;10.00;;;;;;;15.08;77.83;100409.78;5030285;28;20222;-75
2021/08/05 00:56:43;;;;;;;9.97;8.20;;;;;;;15.02;77.81;100394.25;5032961;28;20210;-75
2021/08/05 00:59:10;;;;;;;12.97;8.47;;;;;;;14.99;77.81;100401.69;5032871;28;20222;-76
2021/08/05 01:01:40;;;;;;;11.87;9.10;;;;;;;14.92;77.68;100404.03;5032979;28;20217;-74
2021/08/05 01:04:08;;;;;;;8.93;8.03;;;;;;;14.84;77.90;100409.22;5034297;28;20226;-74
2021/08/05 01:06:43;;;;;;;12.07;9.60;;;;;;;14.77;77.75;100398.16;5032075;28;20237;-75
2021/08/05 01:09:19;;;;;;;11.57;9.57;;;;;;;14.74;78.65;100398.41;5033114;28;20209;-75
2021/08/05 01:11:53;;;;;;;11.00;9.77;;;;;;;14.75;78.89;100397.41;5038803;28;20209;-75
2021/08/05 01:14:23;;;;;;;10.47;9.57;;;;;;;14.76;78.50;100395.59;5032808;28;20222;-74
2021/08/05 01:16:51;;;;;;;10.87;9.77;;;;;;;14.76;78.81;100391.09;5034916;28;20210;-73
2021/08/05 01:19:26;;;;;;;12.10;10.37;;;;;;;14.74;78.63;100387.69;5037755;28;20595;-74
2021/08/05 01:22:01;;;;;;;13.00;8.60;;;;;;;14.70;78.55;100390.75;5034824;28;20268;-75
2021/08/05 01:24:34;;;;;;;9.33;8.23;;;;;;;14.63;78.44;100389.56;5035003;28;20233;-75
2021/08/05 01:27:04;;;;;;;9.57;7.00;;;;;;;14.55;78.44;100387.53;5032214;28;20206;-74
2021/08/05 01:29:34;;;;;;;6.87;6.37;;;;;;;14.46;78.51;100388.31;5028406;28;20211;-74
2021/08/05 01:32:04;;;;;;;7.23;6.63;;;;;;;14.37;78.22;100384.53;5032209;28;20210;-74
2021/08/05 01:34:32;;;;;;;6.33;5.73;;;;;;;14.31;78.38;100381.53;5031508;28;20226;-74
2021/08/05 01:36:59;;;;;;;7.77;7.03;;;;;;;14.29;79.20;100376.28;5031537;28;20256;-74
2021/08/05 01:39:28;;;;;;;9.40;7.90;;;;;;;14.29;78.81;100376.28;5031872;28;20711;-74
2021/08/05 01:41:56;;;;;;;10.57;9.57;;;;;;;14.31;79.20;100384.22;5025977;28;20229;-74
2021/08/05 01:44:25;;;;;;;11.77;10.07;;;;;;;14.34;79.71;100381.25;5030568;28;20230;-75
2021/08/05 01:46:52;;;;;;;10.10;9.13;;;;;;;14.36;79.42;100374.78;5034700;28;20206;-75
2021/08/05 01:49:19;;;;;;;11.70;10.53;;;;;;;14.39;79.87;100381.72;5037502;28;20198;-74
2021/08/05 01:51:48;;;;;;;12.47;10.37;;;;;;;14.43;80.01;100380.53;5034664;28;20206;-75
2021/08/05 01:54:15;;;;;;;10.87;9.87;;;;;;;14.46;80.06;100378.44;5032689;28;20226;-74
2021/08/05 01:56:42;;;;;;;10.97;9.83;;;;;;;14.50;80.08;100371.00;5030979;28;20202;-75
2021/08/05 01:59:08;;;;;;;13.10;12.00;;;;;;;14.52;80.06;100377.06;5028357;28;20652;-73
2021/08/05 02:01:37;;;;;;;13.13;11.37;;;;;;;14.54;80.18;100370.59;5028051;28;20598;-74
2021/08/05 02:04:12;;;;;;;14.50;10.53;;;;;;;14.53;80.13;100374.25;5033361;28;20222;-74
2021/08/05 02:06:46;;;;;;;14.47;10.50;;;;;;;14.46;79.57;100365.06;5028606;28;20209;-74
2021/08/05 02:09:17;;;;;;;13.90;10.17;;;;;;;14.41;79.34;100359.22;5030695;28;20202;-74
2021/08/05 02:11:48;;;;;;;17.63;9.27;;;;;;;14.38;79.97;100364.78;5031575;28;20206;-74
2021/08/05 02:14:17;;;;;;;11.33;10.20;;;;;;;14.38;79.76;100361.25;5034072;28;20237;-75
2021/08/05 02:16:46;;;;;;;14.70;11.90;;;;;;;14.39;80.37;100357.59;5030829;28;20209;-74
2021/08/05 02:19:15;;;;;;;17.40;13.00;;;;;;;14.38;79.89;100359.44;5030284;28;20218;-74
2021/08/05 02:21:43;;;;;;;16.27;12.37;;;;;;;14.38;80.02;100363.94;5031736;28;20241;-75
2021/08/05 02:24:11;;;;;;;13.60;11.30;;;;;;;14.35;80.08;100365.03;5030596;28;20743;-75
2021/08/05 02:26:38;;;;;;;13.83;11.27;;;;;;;14.36;80.49;100363.22;5030566;28;20206;-74
2021/08/05 02:29:05;;;;;;;13.00;11.20;;;;;;;14.36;80.71;100358.72;5030231;28;20202;-75
2021/08/05 02:31:32;;;;;;;17.87;12.97;;;;;;;14.38;80.88;100361.25;5029210;28;20207;-75
2021/08/05 02:34:01;;;;;;;17.63;15.90;;;;;;;14.41;80.61;100353.00;5029718;28;20229;-74
2021/08/05 02:36:27;;;;;;;21.70;17.60;;;;;;;14.42;80.51;100358.25;5028958;28;20206;-74
2021/08/05 02:38:54;;;;;;;18.00;16.23;;;;;;;14.42;80.96;100360.91;5029460;28;20230;-74
2021/08/05 02:41:21;;;;;;;20.23;17.90;;;;;;;14.42;80.72;100360.91;5037573;28;20198;-75
2021/08/05 02:43:48;;;;;;;20.33;17.77;;;;;;;14.41;80.97;100364.56;5029909;28;20694;-73
2021/08/05 02:46:16;;;;;;;19.50;17.50;;;;;;;14.43;81.31;100359.94;5030087;28;20206;-75
2021/08/05 02:48:44;;;;;;;25.20;18.07;;;;;;;14.44;81.46;100369.69;5029331;28;20213;-75
2021/08/05 02:51:12;;;;;;;22.00;17.77;;;;;;;14.45;81.70;100368.72;5029893;28;20304;-74
2021/08/05 02:53:39;;;;;;;20.27;17.73;;;;;;;14.47;81.60;100371.25;5029135;28;20211;-74
2021/08/05 02:56:09;;;;;;;21.67;19.40;;;;;;;14.48;81.70;100370.28;5038489;28;20202;-75
2021/08/05 02:58:35;;;;;;;21.93;18.63;;;;;;;14.48;81.69;100364.91;5031632;28;20230;-75
2021/08/05 03:01:02;;;;;;;20.73;18.53;;;;;;;14.48;81.69;100367.59;5029438;28;20202;-74
2021/08/05 03:03:29;;;;;;;20.97;18.67;;;;;;;14.50;81.48;100365.66;5027325;28;20203;-74
2021/08/05 03:05:56;;;;;;;24.13;20.83;;;;;;;14.51;81.61;100360.13;5028344;28;20218;-74
2021/08/05 03:08:24;;;;;;;21.00;18.73;;;;;;;14.53;82.32;100355.50;5030317;28;20205;-76
2021/08/05 03:10:51;;;;;;;26.80;21.07;;;;;;;14.54;81.83;100356.34;5029097;28;20599;-75
2021/08/05 03:13:17;;;;;;;21.97;19.73;;;;;;;14.56;82.04;100355.25;5030061;28;20208;-74
2021/08/05 03:15:44;;;;;;;22.40;19.40;;;;;;;14.58;82.26;100353.28;5031869;28;20244;-74
2021/08/05 03:18:10;;;;;;;23.43;18.20;;;;;;;14.57;82.05;100350.72;5030075;28;20729;-75
2021/08/05 03:20:37;;;;;;;26.40;20.70;;;;;;;14.56;81.92;100344.53;5029025;28;20202;-74
2021/08/05 03:23:03;;;;;;;21.50;19.13;;;;;;;14.55;82.01;100347.31;5030040;28;20201;-74
2021/08/05 03:25:31;;;;;;;21.63;17.93;;;;;;;14.50;81.62;100350.41;5029139;28;20245;-74
2021/08/05 03:27:58;;;;;;;20.53;17.40;;;;;;;14.46;82.01;100354.34;5029449;28;20213;-74
2021/08/05 03:30:24;;;;;;;23.00;17.30;;;;;;;14.43;81.94;100357.25;5028887;28;20206;-73
2021/08/05 03:32:51;;;;;;;18.10;15.77;;;;;;;14.42;82.30;100354.72;5028598;28;20206;-74
2021/08/05 03:35:17;;;;;;;20.57;17.50;;;;;;;14.43;82.19;100345.69;5029889;28;20593;-75
2021/08/05 03:37:44;;;;;;;20.17;17.47;;;;;;;14.44;82.46;100350.94;5028893;28;20210;-75
2021/08/05 03:40:11;;;;;;;19.50;17.60;;;;;;;14.48;82.12;100354.22;5030424;28;20214;-75
2021/08/05 03:42:39;;;;;;;27.00;18.03;;;;;;;14.49;82.67;100348.72;5028465;28;20224;-73
2021/08/05 03:45:06;;;;;;;23.73;19.00;;;;;;;14.51;82.30;100338.69;5033405;28;20232;-74
2021/08/05 03:47:33;;;;;;;20.47;18.43;;;;;;;14.53;82.23;100341.25;5028405;28;20209;-74
2021/08/05 03:50:00;;;;;;;20.77;18.10;;;;;;;14.53;82.32;100338.56;5028677;28;20204;-74
2021/08/05 03:52:26;;;;;;;21.30;19.00;;;;;;;14.53;82.42;100342.09;5029804;28;20581;-74
2021/08/05 03:54:53;;;;;;;21.13;18.70;;;;;;;14.51;82.13;100341.38;5032028;28;20247;-74
2021/08/05 03:57:19;;;;;;;25.50;19.37;;;;;;;14.50;82.18;100336.19;5030943;28;20202;-74
2021/08/05 03:59:47;;;;;;;24.83;18.03;;;;;;;14.48;82.48;100330.09;5029105;28;20668;-74
2021/08/05 04:02:14;;;;;;;25.57;19.40;;;;;;;14.48;82.54;100343.50;5028712;28;20209;-74
2021/08/05 04:04:41;;;;;;;22.93;18.43;;;;;;;14.46;82.26;100342.75;5028963;28;20224;-74
2021/08/05 04:07:08;;;;;;;22.90;19.53;;;;;;;14.45;82.21;100333.03;5029011;28;20202;-75
2021/08/05 04:09:35;;;;;;;26.63;19.40;;;;;;;14.45;82.92;100333.03;5028443;28;20206;-74
2021/08/05 04:12:01;;;;;;;23.67;19.93;;;;;;;14.45;83.05;100333.88;5029564;28;20220;-74
2021/08/05 04:14:28;;;;;;;22.60;19.53;;;;;;;14.45;82.89;100324.97;5029371;28;20230;-75
2021/08/05 04:16:56;;;;;;;20.80;18.63;;;;;;;14.45;82.96;100323.16;5026997;28;20230;-74
2021/08/05 04:19:26;;;;;;;21.57;19.47;;;;;;;14.45;83.22;100327.66;5028449;28;20707;-74
2021/08/05 04:21:53;;;;;;;21.23;19.03;;;;;;;14.48;83.43;100316.69;5035099;28;20256;-74
2021/08/05 04:24:19;;;;;;;22.73;19.13;;;;;;;14.50;83.54;100326.31;5027892;28;20782;-74
2021/08/05 04:26:46;;;;;;;22.87;20.57;;;;;;;14.53;83.33;100326.03;5029131;28;20202;-75
2021/08/05 04:29:12;;;;;;;23.73;19.83;;;;;;;14.52;83.45;100332.34;5028765;28;20205;-74
2021/08/05 04:31:39;;;;;;;22.83;20.40;;;;;;;14.51;83.31;100333.34;5030896;28;20210;-74
2021/08/05 04:34:07;;;;;;;27.50;21.23;;;;;;;14.53;83.81;100331.38;5028004;28;20703;-75
2021/08/05 04:36:33;;;;;;;25.10;21.50;;;;;;;14.54;83.71;100337.59;5028745;28;20663;-75
2021/08/05 04:39:00;;;;;;;23.40;20.83;;;;;;;14.57;84.04;100329.28;5028056;28;20696;-75
2021/08/05 04:41:27;;;;;;;23.03;20.57;;;;;;;14.61;83.96;100332.56;5029166;28;20210;-74
2021/08/05 04:43:54;;;;;;;24.83;20.37;;;;;;;14.64;83.44;100321.59;5027706;28;20676;-75
2021/08/05 04:46:20;;;;;;;25.63;21.40;;;;;;;14.68;84.16;100325.72;5026499;28;20290;-75
2021/08/05 04:48:47;;;;;;;24.63;21.97;;;;;;;14.70;83.84;100321.91;5029083;28;20203;-74
2021/08/05 04:51:15;;;;;;;24.60;21.97;;;;;;;14.74;83.87;100323.34;5027990;28;20198;-75
2021/08/05 04:53:41;;;;;;;24.10;21.47;;;;;;;14.78;84.01;100324.78;5028087;28;20202;-74
2021/08/05 04:56:08;;;;;;;25.17;22.13;;;;;;;14.81;83.92;100323.69;5028017;28;20297;-75
2021/08/05 04:58:34;;;;;;;24.23;21.73;;;;;;;14.84;83.91;100318.06;5029259;28;20226;-75
2021/08/05 05:01:01;;;;;;;23.53;20.13;;;;;;;14.87;83.74;100317.75;5034086;28;20659;-74
2021/08/05 05:03:27;;;;;;;22.20;19.97;;;;;;;14.90;83.59;100312.13;5032068;28;20644;-74
2021/08/05 05:05:54;;;;;;;25.73;20.30;;;;;;;14.92;83.88;100311.03;5031724;28;20222;-74
2021/08/05 05:08:25;;;;;;;26.50;20.60;;;;;;;14.96;83.81;100311.63;5031946;28;20221;-74
2021/08/05 05:10:53;;;;;;;23.67;20.37;;;;;;;14.99;83.84;100306.00;5031433;28;20210;-74
2021/08/05 05:13:20;;;;;;;23.77;21.13;;;;;;;15.05;83.71;100312.66;5032045;28;20583;-74
2021/08/05 05:15:48;;;;;;;20.57;18.37;;;;;;;15.08;83.52;100299.81;5031533;28;20751;-74
2021/08/05 05:18:16;;;;;;;24.43;20.37;;;;;;;15.12;83.73;100303.94;5032336;28;20206;-73
2021/08/05 05:20:42;;;;;;;29.07;20.13;;;;;;;15.15;83.80;100302.81;5030167;28;20220;-74
2021/08/05 05:23:09;;;;;;;26.63;21.13;;;;;;;15.17;83.90;100307.06;5032102;28;20209;-74
2021/08/05 05:25:39;;;;;;;23.63;20.03;;;;;;;15.21;83.70;100311.19;5050054;22;20244;-76
2021/08/05 05:28:06;;;;;;;22.90;20.50;;;;;;;15.23;83.75;100306.50;5032767;28;20210;-76
2021/08/05 05:30:32;;;;;;;23.07;20.50;;;;;;;15.26;83.73;100305.38;5030266;28;20210;-76
2021/08/05 05:32:59;;;;;;;25.03;22.03;;;;;;;15.29;83.49;100303.28;5030798;28;20206;-75
2021/08/05 05:35:26;;;;;;;23.67;21.17;;;;;;;15.35;83.74;100309.09;5026970;28;20730;-76
2021/08/05 05:37:54;;;;;;;23.30;20.83;;;;;;;15.37;83.37;100296.41;5037789;28;20210;-75
2021/08/05 05:40:21;;;;;;;26.23;21.00;;;;;;;15.41;83.51;100303.19;5034004;28;20396;-76
2021/08/05 05:42:50;;;;;;;25.53;20.60;;;;;;;15.43;83.36;100296.69;5030126;28;20198;-76
2021/08/05 05:45:18;;;;;;;24.53;21.73;;;;;;;15.45;83.62;100302.78;5030541;28;20592;-76
2021/08/05 05:47:45;;;;;;;23.17;20.77;;;;;;;15.48;83.39;100288.25;5030442;28;20285;-75
2021/08/05 05:50:13;;;;;;;22.73;20.27;;;;;;;15.51;83.39;100296.03;5033202;28;20678;-75
2021/08/05 05:52:41;;;;;;;24.77;22.27;;;;;;;15.54;83.40;100295.75;5031165;28;20204;-76
2021/08/05 05:55:08;;;;;;;29.80;23.97;;;;;;;15.57;83.38;100299.06;5032591;28;20226;-76
2021/08/05 05:57:35;;;;;;;28.40;24.13;;;;;;;15.60;83.36;100297.91;5032327;28;20206;-76
2021/08/05 06:00:04;;;;;;;25.23;22.57;;;;;;;15.64;83.25;100293.97;5028761;28;20226;-76
2021/08/05 06:02:31;;;;;;;24.37;21.77;;;;;;;15.67;83.05;100293.69;5030889;28;20199;-76
2021/08/05 06:04:58;;;;;;;26.47;23.53;;;;;;;15.71;83.27;100300.50;5033837;28;20226;-76
2021/08/05 06:07:24;;;;;;;27.43;23.47;;;;;;;15.74;83.42;100302.06;5026561;28;20206;-72
2021/08/05 06:09:51;;;;;;;26.57;23.77;;;;;;;15.75;83.38;100301.91;5031738;28;20876;-72
2021/08/05 06:12:17;;;;;;;28.77;21.90;;;;;;;15.77;83.08;100313.34;5030824;28;20208;-73
2021/08/05 06:14:44;;;;;;;33.57;23.47;;;;;;;15.80;83.38;100305.00;5027027;28;20230;-71
2021/08/05 06:17:12;;;;;;;31.80;24.23;;;;;;;15.86;83.71;100303.63;5033360;28;20202;-71
2021/08/05 06:19:38;;;;;;;34.70;22.60;;;;;;;15.89;83.66;100304.19;5034917;28;20230;-73
2021/08/05 06:22:05;;;;;;;128.77;27.00;;;;;;;15.94;83.70;100298.41;5034932;28;20202;-73
2021/08/05 06:24:31;;;;;;;48.93;24.37;;;;;;;16.01;83.73;100309.41;5037580;28;20237;-72
2021/08/05 06:26:58;;;;;;;25.37;22.37;;;;;;;16.06;83.83;100320.59;5028753;28;20294;-71
2021/08/05 06:29:29;;;;;;;27.23;22.70;;;;;;;16.07;83.40;100317.78;5035260;28;20551;-72
2021/08/05 06:31:56;;;;;;;29.33;24.40;;;;;;;16.09;83.51;100320.31;5032964;28;20214;-72
2021/08/05 06:34:24;;;;;;;34.27;25.57;;;;;;;16.10;83.33;100311.28;5040344;28;20243;-72
2021/08/05 06:36:50;;;;;;;29.73;24.50;;;;;;;16.12;83.11;100320.06;5035860;28;20202;-77
2021/08/05 06:39:18;;;;;;;55.77;26.20;;;;;;;16.15;83.50;100317.91;5032594;28;20222;-72
2021/08/05 06:41:44;;;;;;;50.27;27.53;;;;;;;16.19;83.48;100313.97;5031770;28;20206;-72
2021/08/05 06:44:11;;;;;;;38.60;25.93;;;;;;;16.24;83.49;100310.84;5029514;28;20237;-75
2021/08/05 06:46:38;;;;;;;63.67;29.43;;;;;;;16.29;83.48;100319.34;5029253;28;20202;-72
2021/08/05 06:49:04;;;;;;;54.70;26.97;;;;;;;16.32;83.29;100316.34;5031127;28;20199;-71
2021/08/05 06:51:32;;;;;;;116.07;32.37;;;;;;;16.36;83.54;100314.22;5031308;28;20206;-71
2021/08/05 06:53:59;;;;;;;38.07;25.87;;;;;;;16.39;83.08;100312.13;5031334;28;20207;-72
2021/08/05 06:56:25;;;;;;;74.73;29.77;;;;;;;16.43;83.31;100307.31;5035535;28;20203;-73
2021/08/05 06:58:52;;;;;;;62.47;28.13;;;;;;;16.48;83.25;100305.88;5035565;28;20264;-69
2021/08/05 07:01:18;;;;;;;34.50;26.47;;;;;;;16.51;83.26;100305.59;5029619;28;20203;-73
2021/08/05 07:03:45;;;;;;;200.43;61.53;;;;;;;16.58;83.49;100314.78;5030238;28;20658;-74
2021/08/05 07:06:11;;;;;;;57.30;35.27;;;;;;;16.63;83.37;100306.31;5030819;28;20228;-74
2021/08/05 07:08:39;;;;;;;121.03;33.30;;;;;;;16.67;83.54;100310.41;5035075;28;20205;-71
2021/08/05 07:11:06;;;;;;;133.20;34.00;;;;;;;16.70;83.42;100299.38;5033834;28;20213;-71
2021/08/05 07:13:32;;;;;;;31.33;25.67;;;;;;;16.75;83.38;100304.31;5032330;28;20206;-71
2021/08/05 07:15:59;;;;;;;29.67;25.60;;;;;;;16.78;83.20;100299.50;5033212;28;20226;-73
2021/08/05 07:18:26;;;;;;;31.23;25.50;;;;;;;16.83;83.56;100307.13;5034791;28;20592;-72
2021/08/05 07:20:53;;;;;;;29.23;25.23;;;;;;;16.88;83.21;100310.22;5032691;28;20222;-73
2021/08/05 07:23:19;;;;;;;27.00;24.20;;;;;;;16.92;83.26;100314.31;5033498;28;20211;-76
2021/08/05 07:25:47;;;;;;;27.47;24.57;;;;;;;16.95;83.11;100324.78;5037702;28;20241;-72
2021/08/05 07:28:14;;;;;;;28.07;24.43;;;;;;;16.98;83.20;100316.44;5035563;28;20237;-80
2021/08/05 07:30:41;;;;;;;36.60;27.97;;;;;;;17.03;83.22;100316.81;5036353;28;20202;-73
2021/08/05 07:33:07;;;;;;;29.17;25.93;;;;;;;17.08;83.24;100313.69;5032287;28;20207;-69
2021/08/05 07:35:34;;;;;;;28.10;25.00;;;;;;;17.11;83.07;100322.34;5031300;28;20231;-77
2021/08/05 07:38:00;;;;;;;32.33;26.10;;;;;;;17.14;83.15;100305.91;5035545;28;20552;-71
2021/08/05 07:40:27;;;;;;;31.03;25.33;;;;;;;17.19;83.25;100308.16;5031051;28;20727;-73
2021/08/05 07:42:55;;;;;;;29.10;25.70;;;;;;;17.24;83.06;100314.78;5032714;28;20211;-72
2021/08/05 07:45:22;;;;;;;28.87;25.37;;;;;;;17.28;82.76;100308.09;5034131;28;20219;-73
2021/08/05 07:47:48;;;;;;;27.90;24.90;;;;;;;17.30;82.74;100307.97;5033460;28;20207;-71
2021/08/05 07:50:15;;;;;;;29.60;26.33;;;;;;;17.32;82.45;100308.66;5032951;28;20211;-71
2021/08/05 07:52:42;;;;;;;32.87;26.60;;;;;;;17.35;82.52;100311.91;5031507;28;20234;-72
2021/08/05 07:55:10;;;;;;;29.53;25.73;;;;;;;17.39;82.49;100309.75;5032423;28;20231;-71
2021/08/05 07:57:37;;;;;;;29.33;25.77;;;;;;;17.43;82.47;100300.38;5032587;28;20674;-72
2021/08/05 08:00:07;;;;;;;29.23;25.77;;;;;;;17.48;82.40;100305.31;5039429;28;20251;-70
2021/08/05 08:02:34;;;;;;;30.57;25.00;;;;;;;17.50;82.35;100297.94;5035425;28;20211;-72
2021/08/05 08:05:00;;;;;;;29.33;24.37;;;;;;;17.56;82.35;100303.56;5032549;28;20232;-71
2021/08/05 08:07:27;;;;;;;29.07;25.60;;;;;;;17.60;82.32;100302.25;5036081;28;20608;-74
2021/08/05 08:09:54;;;;;;;28.77;24.53;;;;;;;17.67;82.27;100306.09;5034537;28;20203;-72
2021/08/05 08:12:20;;;;;;;27.10;23.07;;;;;;;17.73;82.25;100304.66;5034304;28;20214;-72
2021/08/05 08:14:47;;;;;;;28.77;24.40;;;;;;;17.78;82.15;100309.56;5034482;28;20225;-72
2021/08/05 08:17:19;;;;;;;34.43;25.30;;;;;;;17.82;82.26;100306.41;5032899;28;20220;-72
2021/08/05 08:19:48;;;;;;;26.40;23.60;;;;;;;17.88;82.26;100305.81;5033769;28;20229;-74
2021/08/05 08:22:15;;;;;;;27.87;24.03;;;;;;;17.95;82.14;100304.19;5032420;28;20216;-75
2021/08/05 08:24:42;;;;;;;29.10;25.43;;;;;;;18.02;81.86;100312.53;5028912;28;20253;-73
2021/08/05 08:27:14;;;;;;;38.97;28.27;;;;;;;18.08;81.71;100311.94;5035424;28;20207;-72
2021/08/05 08:29:41;;;;;;;29.03;24.33;;;;;;;18.15;81.72;100306.75;5029479;28;20227;-75
2021/08/05 08:32:08;;;;;;;31.30;26.40;;;;;;;18.21;81.77;100311.53;5041392;28;20229;-80
2021/08/05 08:34:35;;;;;;;28.87;23.27;;;;;;;18.35;81.64;100328.00;5038756;28;20232;-63
2021/08/05 08:37:02;;;;;;;29.17;23.50;;;;;;;18.55;81.37;100334.06;5041982;28;20216;-56
2021/08/05 08:39:29;;;;;;;24.80;22.20;;;;;;;18.84;79.86;100338.38;5037426;28;21033;-61
2021/08/05 08:41:56;;;;;;;24.73;20.53;;;;;;;18.95;78.08;100338.13;5032832;28;20215;-62
2021/08/05 08:44:22;;;;;;;24.03;21.47;;;;;;;19.06;77.89;100332.44;5035048;28;20230;-58
2021/08/05 08:46:49;;;;;;;23.63;21.17;;;;;;;19.11;76.71;100332.81;5033670;28;20211;-54
2021/08/05 08:49:23;;;;;;;23.83;21.20;;;;;;;19.16;76.39;100327.81;5037844;28;20211;-52
2021/08/05 08:51:51;;;;;;;22.37;20.07;;;;;;;19.26;75.49;100327.66;5034127;28;20211;-59
2021/08/05 08:54:19;;;;;;;22.53;20.13;;;;;;;19.34;75.16;100325.88;5033314;28;20273;-55
2021/08/05 08:56:47;;;;;;;21.40;19.30;;;;;;;19.43;75.13;100322.19;5032496;28;20208;-61
2021/08/05 08:59:15;;;;;;;22.60;20.30;;;;;;;19.54;75.62;100321.06;5031131;28;20587;-56
2021/08/05 09:01:42;;;;;;;21.40;19.33;;;;;;;19.69;76.04;100319.47;5029002;28;20232;-59
2021/08/05 09:04:15;;;;;;;21.50;19.50;;;;;;;19.83;75.78;100312.56;5025770;28;20204;-59
2021/08/05 09:06:42;;;;;;;21.37;19.17;;;;;;;19.96;75.58;100318.34;5032160;28;20208;-50
2021/08/05 09:09:10;;;;;;;21.57;19.47;;;;;;;20.10;74.38;100308.72;5032019;28;21562;-55
2021/08/05 09:11:37;;;;;;;21.23;19.20;;;;;;;20.21;73.88;100315.69;5034427;28;20208;-58
2021/08/05 09:14:04;;;;;;;22.20;19.93;;;;;;;20.35;73.47;100321.28;5030880;28;20217;-52
2021/08/05 09:16:32;;;;;;;18.97;17.30;;;;;;;20.52;72.00;100308.63;5035923;28;20260;-49
2021/08/05 09:19:08;;;;;;;20.30;17.63;;;;;;;20.70;71.98;100306.59;5032787;28;20204;-51
2021/08/05 09:21:35;;;;;;;18.97;17.23;;;;;;;20.89;70.75;100315.38;5031049;28;20229;-64
2021/08/05 09:24:04;;;;;;;20.17;18.20;;;;;;;21.01;70.48;100313.97;5028457;28;20297;-64
2021/08/05 09:26:36;;;;;;;19.53;17.73;;;;;;;21.18;70.65;100306.66;5031092;28;20232;-52
2021/08/05 09:29:08;;;;;;;18.33;16.73;;;;;;;21.38;70.61;100306.13;5032013;28;20201;-57
2021/08/05 09:31:37;;;;;;;18.58;16.88;;;;;;;21.68;69.74;100306.31;5030107;28;20806;-50
2021/08/05 09:34:05;;;;;;;82.20;21.20;;;;;;;21.96;68.66;100302.09;5025283;28;20216;-56
2021/08/05 09:36:32;;;;;;;17.60;16.00;;;;;;;22.24;67.65;100301.59;5033667;28;20200;-47
2021/08/05 09:38:59;;;;;;;16.85;15.23;;;;;;;22.56;66.34;100300.53;5032397;28;20221;-58
2021/08/05 09:41:26;;;;;;;16.98;15.52;;;;;;;22.81;65.69;100300.13;5032541;28;20566;-48
2021/08/05 09:44:02;;;;;;;17.95;16.10;;;;;;;23.04;64.16;100300.06;5032674;28;20564;-48
2021/08/05 09:46:31;;;;;;;16.83;15.23;;;;;;;23.19;63.67;100291.91;5030736;28;20697;-53
2021/08/05 09:48:57;;;;;;;16.80;15.13;;;;;;;23.29;63.51;100281.59;5032459;28;20253;-52
2021/08/05 09:51:24;;;;;;;14.07;12.68;;;;;;;23.40;62.02;100278.41;5028824;28;20213;-52
2021/08/05 09:53:59;;;;;;;15.20;13.90;;;;;;;23.57;61.86;100276.38;5028697;28;20491;-55
2021/08/05 09:56:26;;;;;;;14.82;13.55;;;;;;;23.88;60.23;100271.50;5031992;28;20209;-54
2021/08/05 09:58:53;;;;;;;13.20;12.18;;;;;;;24.67;59.21;100266.00;5035422;28;20212;-47
2021/08/05 10:01:21;;;;;;;13.18;12.18;;;;;;;25.79;55.38;100265.84;5028608;28;20233;-56
2021/08/05 10:03:48;;;;;;;12.02;11.05;;;;;;;26.73;52.80;100265.75;5026998;28;20201;-60
2021/08/05 10:06:14;;;;;;;11.43;10.52;;;;;;;27.35;51.15;100258.94;5031389;28;20230;-58
2021/08/05 10:08:43;;;;;;;11.52;10.63;;;;;;;27.74;48.70;100260.69;5034023;28;20208;-59
2021/08/05 10:11:10;;;;;;;11.18;10.38;;;;;;;27.98;48.43;100244.31;5031900;28;20204;-57
2021/08/05 10:13:39;;;;;;;10.70;9.82;;;;;;;28.18;46.97;100246.09;5030967;28;20202;-59
2021/08/05 10:16:08;;;;;;;10.40;9.70;;;;;;;28.39;46.91;100245.75;5033861;28;20660;-57
2021/08/05 10:18:37;;;;;;;11.75;10.75;;;;;;;28.67;44.32;100242.53;5029891;28;20208;-52
2021/08/05 10:21:06;;;;;;;11.38;10.35;;;;;;;29.07;44.54;100243.03;5032402;28;20228;-52
2021/08/05 10:23:36;;;;;;;8.52;7.65;;;;;;;29.67;43.45;100238.53;5030145;28;20209;-51
2021/08/05 10:26:04;;;;;;;8.00;7.40;;;;;;;29.99;41.20;100232.81;5030944;28;20225;-53
2021/08/05 10:28:33;;;;;;;7.88;7.28;;;;;;;29.68;40.31;100233.88;5030571;28;20660;-57
2021/08/05 10:31:01;;;;;;;6.90;6.40;;;;;;;29.15;41.50;100225.44;5030995;28;20229;-51
2021/08/05 10:33:28;;;;;;;6.10;5.65;;;;;;;28.66;42.24;100218.97;5033176;28;20692;-56
2021/08/05 10:35:57;;;;;;;7.00;6.50;;;;;;;28.14;42.11;100222.94;5031358;28;20226;-51
2021/08/05 10:38:25;;;;;;;7.45;6.85;;;;;;;27.58;43.10;100223.72;5030731;28;20583;-54
2021/08/05 10:40:54;;;;;;;5.70;5.22;;;;;;;27.12;43.70;100227.44;5037167;28;20225;-54
2021/08/05 10:43:22;;;;;;;6.22;5.63;;;;;;;26.75;44.91;100228.13;5030631;28;20214;-54
2021/08/05 10:45:49;;;;;;;5.38;4.97;;;;;;;26.59;45.77;100221.22;5030300;28;20837;-51
2021/08/05 10:48:18;;;;;;;5.90;5.40;;;;;;;26.52;46.46;100218.47;5030529;28;20707;-52
2021/08/05 10:50:46;;;;;;;6.05;5.55;;;;;;;26.39;45.78;100223.94;5033581;28;20206;-52
2021/08/05 10:56:22;;;;;;;5.75;5.20;;;;;;;26.02;47.23;100209.00;5063379;28;21123;-56
2021/08/05 10:59:09;;;;;;;6.55;6.05;;;;;;;25.82;46.76;100213.56;5065029;28;20250;-58
2021/08/05 11:01:53;;;;;;;6.38;5.80;;;;;;;25.65;48.06;100199.47;5063794;28;20684;-56
2021/08/05 11:04:46;;;;;;;6.10;5.70;;;;;;;25.57;47.66;100205.09;5065381;28;20224;-52
2021/08/05 11:07:33;;;;;;;6.20;5.70;;;;;;;25.52;48.13;100204.88;5054936;28;20198;-56
2021/08/05 11:10:22;;;;;;;5.35;4.97;;;;;;;25.49;49.11;100195.19;5056052;22;20237;-55
2021/08/05 11:12:52;;;;;;;5.28;4.88;;;;;;;25.56;48.69;100206.16;5026457;28;20206;-57
2021/08/05 11:15:49;;;;;;;6.03;5.45;;;;;;;25.52;48.30;100193.97;5026596;28;20229;-55
2021/08/05 11:18:18;;;;;;;6.65;6.15;;;;;;;25.49;48.53;100197.09;5025027;28;21632;-58